»·PEaware :: N261AB KDTA-KPRC

N261AB :: KDTA-KPRC

FLIGHT INFORMATION

Flight Status: Arrived
Operator: Privately registered:
United States
More flights under this callsign
Pilot: Brian K. (18535)
Aircraft: BEECH AIRCRAFT BARON
(BE58)
More flights by this aircraft type
Origin: KDTA Delta Mun
United States
Destination: KPRC Love
United States
More flights between these airports :: More routes between these airports
Route:
File this flight plan on PilotEdge
Remarks:
Altitude:
(Current/Filed)
11,500ft
Speed:
(Current/Filed)
180kts
Departed: 17-Mar-19 07:14 AM
Arrived: 17-Mar-19 08:48 AM
Distance/Time
Traveled:
284nm/1:34
Distance/Time
To Go:
Arrived

Flight Plot

Page will automatically refresh every two minutes.

Flight plan parsing failed; only flown route is shown


Map Options




Map Legend


Flown Route
Filed Route
Departure Airport
Arrival Airport
Navaid (VOR, NDB)
Fix

Horizontal Profiles

Position Reports

Time Latitude Longitude Heading Altitude Ground
Speed
17-Mar-19 07:08 39.385552 -112.511934 226 4759ft 0kts
17-Mar-19 07:09 39.383777 -112.511772 225 4759ft 14kts
17-Mar-19 07:10 39.380052 -112.509135 135 4759ft 22kts
17-Mar-19 07:11 39.375377 -112.503163 132 4754ft 16kts
17-Mar-19 07:12 39.374955 -112.502630 138 4753ft 5kts
17-Mar-19 07:13 39.378413 -112.502228 358 4759ft 80kts
17-Mar-19 07:14 39.408260 -112.507048 315 6078ft 120kts
17-Mar-19 07:15 39.391540 -112.537712 182 7284ft 146kts
17-Mar-19 07:16 39.354750 -112.528657 160 8820ft 134kts
17-Mar-19 07:17 39.318586 -112.512512 163 10074ft 141kts
17-Mar-19 07:18 39.277988 -112.509559 185 11005ft 154kts
17-Mar-19 07:19 39.233040 -112.515034 186 11509ft 176kts
17-Mar-19 07:20 39.181226 -112.521925 186 11500ft 192kts
17-Mar-19 07:21 39.127410 -112.529149 186 11498ft 194kts
17-Mar-19 07:22 39.073088 -112.536451 186 11498ft 194kts
17-Mar-19 07:23 39.018679 -112.543762 186 11497ft 195kts
17-Mar-19 07:24 38.964185 -112.551110 185 11498ft 197kts
17-Mar-19 07:25 38.909383 -112.558458 183 11498ft 197kts
17-Mar-19 07:26 38.854836 -112.565711 183 11497ft 194kts
17-Mar-19 07:27 38.801266 -112.572847 183 11497ft 192kts
17-Mar-19 07:28 38.747696 -112.579985 183 11497ft 191kts
17-Mar-19 07:29 38.694283 -112.587092 183 11497ft 191kts
17-Mar-19 07:30 38.641084 -112.594160 183 11497ft 191kts
17-Mar-19 07:31 38.587993 -112.601204 183 11497ft 191kts
17-Mar-19 07:32 38.534804 -112.608250 183 11497ft 191kts
17-Mar-19 07:33 38.481759 -112.615266 183 11497ft 191kts
17-Mar-19 07:34 38.428538 -112.622295 183 11497ft 191kts
17-Mar-19 07:35 38.375288 -112.629318 183 11488ft 191kts
17-Mar-19 07:36 38.322511 -112.626945 159 11488ft 188kts
17-Mar-19 07:37 38.273325 -112.603245 156 11488ft 187kts
17-Mar-19 07:38 38.224570 -112.578222 155 11489ft 187kts
17-Mar-19 07:39 38.175936 -112.553138 155 11497ft 187kts
17-Mar-19 07:40 38.127311 -112.528080 155 11505ft 187kts
17-Mar-19 07:41 38.078692 -112.503059 155 11514ft 187kts
17-Mar-19 07:42 38.030103 -112.478090 155 11514ft 187kts
17-Mar-19 07:43 37.981022 -112.452904 155 11514ft 188kts
17-Mar-19 07:44 37.932458 -112.428019 155 11514ft 188kts
17-Mar-19 07:45 37.883836 -112.403142 155 11515ft 188kts
17-Mar-19 07:46 37.834812 -112.378096 155 11515ft 188kts
17-Mar-19 07:47 37.785762 -112.353071 155 11515ft 188kts
17-Mar-19 07:48 37.736548 -112.327996 156 11516ft 188kts
17-Mar-19 07:49 37.687378 -112.303804 166 11514ft 190kts
17-Mar-19 07:50 37.635002 -112.292380 168 11516ft 190kts
17-Mar-19 07:51 37.581654 -112.280981 168 11491ft 192kts
17-Mar-19 07:52 37.528871 -112.269673 168 11488ft 191kts
17-Mar-19 07:53 37.476247 -112.258393 168 11488ft 191kts
17-Mar-19 07:54 37.423470 -112.247077 168 11488ft 191kts
17-Mar-19 07:55 37.370852 -112.235789 168 11488ft 191kts
17-Mar-19 07:56 37.318137 -112.224475 168 11488ft 191kts
17-Mar-19 07:57 37.265522 -112.213174 168 11488ft 191kts
17-Mar-19 07:58 37.212780 -112.201838 168 11488ft 191kts
17-Mar-19 07:59 37.160129 -112.190514 168 11488ft 191kts
17-Mar-19 08:00 37.107383 -112.179177 168 11487ft 191kts
17-Mar-19 08:01 37.054042 -112.167700 168 11489ft 195kts
17-Mar-19 08:02 36.999973 -112.154255 168 11490ft 199kts
17-Mar-19 08:03 36.945637 -112.138732 168 11488ft 200kts
17-Mar-19 08:04 36.891579 -112.122788 168 11488ft 200kts
17-Mar-19 08:05 36.837109 -112.106716 168 11488ft 199kts
17-Mar-19 08:06 36.783065 -112.090763 168 11488ft 199kts
17-Mar-19 08:07 36.728791 -112.074736 168 11487ft 199kts
17-Mar-19 08:08 36.674711 -112.058803 168 11486ft 199kts
17-Mar-19 08:09 36.620867 -112.053046 207 11481ft 195kts
17-Mar-19 08:10 36.572932 -112.084119 195 11478ft 196kts
17-Mar-19 08:11 36.519526 -112.098076 185 11468ft 197kts
17-Mar-19 08:12 36.464633 -112.102407 185 11459ft 192kts
17-Mar-19 08:13 36.411898 -112.106868 185 11460ft 187kts
17-Mar-19 08:14 36.360214 -112.111171 180 11459ft 186kts
17-Mar-19 08:15 36.308343 -112.114294 197 11462ft 186kts
17-Mar-19 08:16 36.258701 -112.132568 198 11495ft 185kts
17-Mar-19 08:17 36.208356 -112.151160 198 11498ft 186kts
17-Mar-19 08:18 36.158577 -112.169537 198 11498ft 186kts
17-Mar-19 08:19 36.108829 -112.187891 198 11498ft 186kts
17-Mar-19 08:20 36.059217 -112.207691 200 11498ft 186kts
17-Mar-19 08:21 36.010122 -112.229931 203 11498ft 186kts
17-Mar-19 08:22 35.961310 -112.253797 203 11499ft 192kts
17-Mar-19 08:23 35.907926 -112.263825 186 11498ft 196kts
17-Mar-19 08:24 35.853899 -112.270143 187 11497ft 196kts
17-Mar-19 08:25 35.799495 -112.276960 187 11534ft 196kts
17-Mar-19 08:26 35.745088 -112.283812 187 11534ft 196kts
17-Mar-19 08:27 35.689617 -112.290816 187 11207ft 211kts
17-Mar-19 08:28 35.629595 -112.298347 187 10541ft 220kts
17-Mar-19 08:29 35.568195 -112.306042 187 9911ft 222kts
17-Mar-19 08:30 35.507074 -112.313675 187 9531ft 214kts
17-Mar-19 08:31 35.448858 -112.320959 187 9525ft 208kts
17-Mar-19 08:32 35.391499 -112.328130 187 9515ft 206kts
17-Mar-19 08:33 35.334239 -112.335271 187 9509ft 205kts
17-Mar-19 08:34 35.277365 -112.342352 187 9509ft 205kts
17-Mar-19 08:36 35.220376 -112.349438 187 9509ft 205kts
17-Mar-19 08:37 35.162388 -112.356666 186 9175ft 217kts
17-Mar-19 08:38 35.102126 -112.364112 186 8471ft 210kts
17-Mar-19 08:39 35.044151 -112.371287 186 7743ft 206kts
17-Mar-19 08:40 34.987821 -112.378247 186 7506ft 200kts
17-Mar-19 08:41 34.932456 -112.385087 186 7500ft 198kts
17-Mar-19 08:42 34.882759 -112.391215 186 7493ft 197kts
17-Mar-19 08:43 34.828314 -112.397924 186 7297ft 206kts
17-Mar-19 08:44 34.772450 -112.397190 165 6564ft 180kts
17-Mar-19 08:45 34.732543 -112.379934 150 6459ft 134kts
17-Mar-19 08:46 34.701386 -112.374422 217 5920ft 124kts
17-Mar-19 08:47 34.675549 -112.400377 220 5316ft 109kts
17-Mar-19 08:48 34.662457 -112.413804 133 5042ft 6kts
17-Mar-19 08:49 34.662299 -112.413562 129 5042ft 0kts
17-Mar-19 08:50 34.662299 -112.413562 129 5042ft 0kts
17-Mar-19 08:51 34.662175 -112.413379 130 5042ft 4kts
17-Mar-19 08:52 34.659872 -112.415208 221 5042ft 15kts
17-Mar-19 08:53 34.656189 -112.419124 220 5042ft 19kts
17-Mar-19 08:54 34.652084 -112.423485 221 5042ft 18kts
17-Mar-19 08:54 34.649536 -112.425795 140 5042ft 9kts
17-Mar-19 08:55 34.647527 -112.423041 193 5042ft 9kts
17-Mar-19 08:57 34.646681 -112.423344 218 5042ft 0kts

Navigation Log

Ident Type
Flight plan parsing failed, navigation log unavailable